Time;durP1;ratioP1;P1;durP2;ratioP2;P2;SDS_P1;SDS_P2;PMS_P1;PMS_P2;Temp;Humidity;BMP_temperature;BMP_pressure;BME280_temperature;BME280_humidity;BME280_pressure;Samples;Min_cycle;Max_cycle;Signal;HPM_P1;HPM_P2
2022/10/26 00:00:12;;;;;;;2.58;1.83;;;10.20;99.90;;;;;;5069319;28;20093;-58
2022/10/26 00:02:39;;;;;;;7.68;3.20;;;10.20;99.90;;;;;;5072064;28;20525;-51
2022/10/26 00:05:06;;;;;;;6.85;2.80;;;10.20;99.90;;;;;;5063809;28;20040;-56
2022/10/26 00:07:33;;;;;;;5.28;2.75;;;10.20;99.90;;;;;;5061979;28;20088;-52
2022/10/26 00:10:00;;;;;;;4.50;2.88;;;10.20;99.90;;;;;;5075456;28;20489;-54
2022/10/26 00:12:27;;;;;;;;;;;10.20;99.90;;;;;;5067305;28;20444;-56
2022/10/26 00:14:53;;;;;;;5.80;2.97;;;10.30;99.90;;;;;;5063333;28;20003;-53
2022/10/26 00:17:20;;;;;;;4.32;2.50;;;10.30;99.90;;;;;;5074203;28;20040;-52
2022/10/26 00:19:47;;;;;;;8.70;3.13;;;10.30;99.90;;;;;;5065910;28;20064;-54
2022/10/26 00:22:13;;;;;;;6.47;2.60;;;10.40;99.90;;;;;;5068436;28;20079;-54
2022/10/26 00:24:40;;;;;;;4.30;2.85;;;10.50;99.90;;;;;;5062624;28;20135;-54
2022/10/26 00:27:07;;;;;;;5.38;3.00;;;10.50;99.90;;;;;;5071743;28;20165;-52
2022/10/26 00:29:34;;;;;;;4.30;2.42;;;10.50;99.90;;;;;;5062646;28;20079;-53
2022/10/26 00:32:00;;;;;;;12.75;2.63;;;10.40;99.90;;;;;;5064767;28;20493;-54
2022/10/26 00:34:27;;;;;;;5.10;2.70;;;10.40;99.90;;;;;;5062941;28;20149;-54
2022/10/26 00:36:54;;;;;;;3.95;2.55;;;10.40;99.90;;;;;;5071518;28;20036;-51
2022/10/26 00:39:20;;;;;;;5.22;2.40;;;10.30;99.90;;;;;;5057867;28;20075;-55
2022/10/26 00:41:47;;;;;;;3.83;2.03;;;10.30;99.90;;;;;;5067213;28;20075;-55
2022/10/26 00:44:42;;;;;;;2.75;1.98;;;10.30;99.90;;;;;;5067727;28;20041;-53
2022/10/26 00:47:12;;;;;;;4.63;2.25;;;10.30;99.90;;;;;;5077669;28;20143;-51
2022/10/26 00:49:39;;;;;;;2.83;2.05;;;10.30;99.90;;;;;;5071637;28;20116;-51
2022/10/26 00:52:07;;;;;;;;;;;10.30;99.90;;;;;;5055633;28;20072;-53
2022/10/26 00:54:34;;;;;;;4.55;2.58;;;10.30;99.90;;;;;;5072753;28;19920;-53
2022/10/26 00:57:01;;;;;;;5.82;2.60;;;10.30;99.90;;;;;;5070109;28;20064;-52
2022/10/26 00:59:28;;;;;;;7.65;2.20;;;10.40;99.90;;;;;;5073339;28;20148;-58
2022/10/26 01:01:54;;;;;;;8.07;2.40;;;10.40;99.90;;;;;;5070055;28;20470;-54
2022/10/26 01:04:22;;;;;;;9.88;2.60;;;10.40;99.90;;;;;;5070427;28;20475;-52
2022/10/26 01:06:49;;;;;;;5.15;2.25;;;10.40;99.90;;;;;;5071388;28;20548;-52
2022/10/26 01:09:17;;;;;;;4.43;2.45;;;10.40;99.90;;;;;;5072650;28;20076;-54
2022/10/26 01:11:44;;;;;;;17.52;3.00;;;10.40;99.90;;;;;;5071822;28;20051;-53
2022/10/26 01:14:15;;;;;;;8.43;2.65;;;10.40;99.90;;;;;;5079819;28;20068;-53
2022/10/26 01:17:05;;;;;;;8.80;2.75;;;10.40;99.90;;;;;;5084942;28;20032;-52
2022/10/26 01:20:08;;;;;;;5.28;2.22;;;10.40;99.90;;;;;;5083536;28;20098;-55
2022/10/26 01:22:37;;;;;;;4.00;2.22;;;10.40;99.90;;;;;;5071803;28;20080;-55
2022/10/26 01:25:42;;;;;;;4.00;2.40;;;10.40;99.90;;;;;;5068207;28;20119;-53
2022/10/26 01:28:56;;;;;;;6.55;3.28;;;10.50;99.90;;;;;;5047830;28;20536;-54
2022/10/26 01:31:30;;;;;;;4.80;2.60;;;10.50;99.90;;;;;;5017779;28;20077;-51
2022/10/26 01:34:04;;;;;;;4.35;2.25;;;10.60;99.90;;;;;;5071113;28;20079;-55
2022/10/26 01:36:39;;;;;;;5.20;2.35;;;10.60;99.90;;;;;;5070685;28;20450;-53
2022/10/26 01:39:19;;;;;;;6.07;2.88;;;10.60;99.90;;;;;;5070742;28;20137;-56
2022/10/26 01:41:49;;;;;;;5.40;2.40;;;10.60;99.90;;;;;;5069609;28;20064;-52
2022/10/26 01:44:23;;;;;;;4.40;2.10;;;10.60;99.90;;;;;;5070114;28;20076;-52
2022/10/26 01:46:53;;;;;;;3.95;2.38;;;10.60;99.90;;;;;;5070853;28;20102;-56
2022/10/26 01:49:24;;;;;;;4.72;2.50;;;10.60;99.90;;;;;;5053104;28;20602;-54
2022/10/26 01:51:51;;;;;;;5.90;2.20;;;10.60;99.90;;;;;;5083465;28;20111;-52
2022/10/26 01:54:18;;;;;;;8.10;4.15;;;10.60;99.90;;;;;;5091344;28;20561;-54
2022/10/26 01:56:50;;;;;;;8.25;2.25;;;10.60;99.90;;;;;;5082450;28;20067;-52
2022/10/26 01:59:41;;;;;;;3.92;2.67;;;10.60;99.90;;;;;;5071290;28;20133;-53
2022/10/26 02:02:28;;;;;;;5.25;2.50;;;10.60;99.90;;;;;;5073838;28;20075;-52
2022/10/26 02:05:17;;;;;;;4.90;2.47;;;10.60;99.90;;;;;;5065166;28;20068;-52
2022/10/26 02:08:11;;;;;;;4.88;2.05;;;10.60;99.90;;;;;;5060096;28;20068;-51
2022/10/26 02:10:54;;;;;;;9.25;2.78;;;10.60;99.90;;;;;;5055888;28;20111;-52
2022/10/26 02:16:25;;;;;;;5.03;2.00;;;10.60;99.90;;;;;;5071295;28;20114;-48
2022/10/26 02:19:52;;;;;;;5.65;2.28;;;10.60;99.90;;;;;;5097414;28;20067;-52
2022/10/26 02:22:55;;;;;;;4.73;1.80;;;10.70;99.90;;;;;;4988037;28;20075;-48
2022/10/26 02:25:32;;;;;;;5.05;2.00;;;10.70;99.90;;;;;;5028168;28;20045;-49
2022/10/26 02:28:04;;;;;;;4.28;1.77;;;10.70;99.90;;;;;;5059461;28;20106;-49
2022/10/26 02:30:34;;;;;;;7.82;2.08;;;10.70;99.90;;;;;;5076191;28;20064;-48
2022/10/26 02:33:03;;;;;;;3.40;2.05;;;10.70;99.90;;;;;;5086988;28;20036;-49
2022/10/26 02:35:33;;;;;;;3.97;1.88;;;10.70;99.90;;;;;;5102618;28;20063;-48
2022/10/26 02:38:03;;;;;;;6.07;1.70;;;10.80;99.90;;;;;;5098740;28;20404;-48
2022/10/26 02:40:32;;;;;;;5.45;1.90;;;10.80;99.90;;;;;;5099175;28;20075;-50
2022/10/26 02:43:04;;;;;;;4.47;1.92;;;10.80;99.90;;;;;;5088667;28;20746;-50
2022/10/26 02:45:36;;;;;;;3.15;2.10;;;10.80;99.90;;;;;;5088616;28;20114;-49
2022/10/26 02:48:03;;;;;;;4.10;2.17;;;10.80;99.90;;;;;;5096840;28;20067;-49
2022/10/26 02:50:50;;;;;;;6.85;2.20;;;10.80;99.90;;;;;;5090670;28;20528;-51
2022/10/26 02:53:46;;;;;;;8.60;2.67;;;10.80;99.90;;;;;;5090378;28;20044;-51
2022/10/26 02:56:20;;;;;;;3.90;2.15;;;10.80;99.90;;;;;;5091171;28;20463;-48
2022/10/26 02:58:51;;;;;;;6.38;1.80;;;10.80;99.90;;;;;;5096098;28;20048;-49
2022/10/26 03:01:19;;;;;;;4.55;1.77;;;10.70;99.90;;;;;;5099646;28;20085;-50
2022/10/26 03:03:46;;;;;;;4.32;1.83;;;10.80;99.90;;;;;;5098231;28;20067;-49
2022/10/26 03:06:21;;;;;;;3.67;1.80;;;10.80;99.90;;;;;;5110626;28;20500;-48
2022/10/26 03:08:49;;;;;;;3.67;1.48;;;10.80;99.90;;;;;;5074461;28;20041;-50
2022/10/26 03:11:16;;;;;;;4.10;1.85;;;10.80;99.90;;;;;;5074458;28;20071;-48
2022/10/26 03:13:43;;;;;;;8.90;1.70;;;10.80;99.90;;;;;;5079823;28;20076;-49
2022/10/26 03:16:10;;;;;;;6.55;1.70;;;10.80;99.90;;;;;;5107679;28;20115;-48
2022/10/26 03:18:37;;;;;;;;;;;10.90;99.90;;;;;;5072142;28;20504;-52
2022/10/26 03:21:03;;;;;;;3.58;1.30;;;11.00;99.90;;;;;;5072766;28;20269;-48
2022/10/26 03:23:30;;;;;;;5.35;2.45;;;11.10;99.90;;;;;;5093505;28;20458;-49
2022/10/26 03:25:57;;;;;;;34.67;20.13;;;11.10;99.90;;;;;;5109300;28;20075;-49
2022/10/26 03:28:24;;;;;;;70.95;42.38;;;11.20;99.90;;;;;;5053026;28;20464;-50
2022/10/26 03:30:51;;;;;;;44.20;28.38;;;11.20;99.90;;;;;;5083214;28;20101;-49
2022/10/26 03:33:18;;;;;;;39.53;24.27;;;11.20;99.90;;;;;;5107594;28;20039;-51
2022/10/26 03:35:44;;;;;;;21.27;12.30;;;11.20;99.90;;;;;;5106310;28;20045;-52
2022/10/26 03:38:11;;;;;;;13.25;8.40;;;11.20;99.90;;;;;;5092339;28;20119;-50
2022/10/26 03:40:41;;;;;;;17.40;9.52;;;11.30;99.90;;;;;;5094641;28;20047;-52
2022/10/26 03:43:08;;;;;;;39.08;18.35;;;11.30;99.90;;;;;;5104295;28;20067;-51
2022/10/26 03:45:35;;;;;;;60.10;26.13;;;11.20;99.90;;;;;;5101774;28;20075;-49
2022/10/26 03:48:02;;;;;;;31.83;12.45;;;11.20;99.90;;;;;;5077069;28;20063;-49
2022/10/26 03:50:28;;;;;;;11.32;3.90;;;11.20;99.90;;;;;;5107172;28;20443;-48
2022/10/26 03:52:55;;;;;;;5.07;2.15;;;11.10;99.90;;;;;;5110949;28;20036;-49
2022/10/26 03:55:22;;;;;;;3.17;1.75;;;11.20;99.90;;;;;;5104711;28;20071;-51
2022/10/26 03:57:48;;;;;;;2.85;1.70;;;11.20;99.90;;;;;;5108840;28;20480;-48
2022/10/26 04:00:16;;;;;;;3.25;1.50;;;11.10;99.90;;;;;;5093479;28;20048;-49
2022/10/26 04:02:50;;;;;;;7.28;1.60;;;11.20;99.90;;;;;;5101478;28;20543;-49
2022/10/26 04:05:17;;;;;;;5.20;2.03;;;11.20;99.90;;;;;;5098162;28;20044;-49
2022/10/26 04:08:01;;;;;;;4.13;1.70;;;11.20;99.90;;;;;;5074177;28;20086;-48
2022/10/26 04:10:29;;;;;;;4.75;1.42;;;11.20;99.90;;;;;;5087760;28;20543;-48
2022/10/26 04:12:57;;;;;;;6.22;1.80;;;11.30;99.90;;;;;;5114408;28;20067;-49
2022/10/26 04:15:24;;;;;;;4.55;1.60;;;11.30;99.90;;;;;;5089653;28;20045;-48
2022/10/26 04:17:56;;;;;;;5.90;1.70;;;11.20;99.90;;;;;;5078454;28;20072;-50
2022/10/26 04:20:23;;;;;;;3.45;1.92;;;11.20;99.90;;;;;;5105302;28;20043;-49
2022/10/26 04:22:58;;;;;;;7.13;2.28;;;11.10;99.90;;;;;;5106013;28;20078;-48
2022/10/26 04:25:25;;;;;;;9.35;2.25;;;11.10;99.90;;;;;;5082634;28;20127;-48
2022/10/26 04:27:58;;;;;;;5.95;2.33;;;11.00;99.90;;;;;;5073153;28;20036;-49
2022/10/26 04:30:25;;;;;;;2.90;1.95;;;11.00;99.90;;;;;;5074325;28;20127;-48
2022/10/26 04:32:52;;;;;;;4.28;2.17;;;11.00;99.90;;;;;;5080600;28;20127;-52
2022/10/26 04:35:18;;;;;;;2.80;1.92;;;11.00;99.90;;;;;;5098669;28;20457;-50
2022/10/26 04:37:45;;;;;;;2.95;2.10;;;11.00;99.90;;;;;;5106949;28;20160;-50
2022/10/26 04:40:12;;;;;;;4.20;1.77;;;10.90;99.90;;;;;;5088667;28;20064;-49
2022/10/26 04:42:43;;;;;;;5.28;2.00;;;10.90;99.90;;;;;;5092504;28;20079;-49
2022/10/26 04:45:12;;;;;;;4.13;2.33;;;11.00;99.90;;;;;;5092642;28;20044;-48
2022/10/26 04:47:39;;;;;;;6.15;1.92;;;11.00;99.90;;;;;;5104345;28;20500;-49
2022/10/26 04:50:07;;;;;;;4.03;2.47;;;11.10;99.90;;;;;;5106199;28;20083;-52
2022/10/26 04:52:35;;;;;;;4.90;2.35;;;11.00;99.90;;;;;;5110895;28;20104;-49
2022/10/26 04:55:04;;;;;;;;;;;11.00;99.90;;;;;;5095901;28;20068;-53
2022/10/26 04:57:32;;;;;;;3.25;1.95;;;10.90;99.90;;;;;;5108281;28;19967;-50
2022/10/26 05:00:00;;;;;;;5.90;1.92;;;10.90;99.90;;;;;;5071657;28;20457;-49
2022/10/26 05:02:27;;;;;;;2.75;1.40;;;10.90;99.90;;;;;;5094963;28;20059;-53
2022/10/26 05:04:54;;;;;;;;;;;10.90;99.90;;;;;;5102452;28;20116;-51
2022/10/26 05:07:21;;;;;;;4.55;2.03;;;11.00;99.90;;;;;;5099128;28;19924;-50
2022/10/26 05:09:48;;;;;;;3.45;2.10;;;11.00;99.90;;;;;;5112837;28;20065;-49
2022/10/26 05:12:15;;;;;;;3.13;2.15;;;11.00;99.90;;;;;;5101761;28;20147;-50
2022/10/26 05:14:41;;;;;;;3.85;1.98;;;10.90;99.90;;;;;;5082729;28;20131;-50
2022/10/26 05:17:08;;;;;;;10.80;3.83;;;10.90;99.90;;;;;;5098838;28;20071;-48
2022/10/26 05:19:35;;;;;;;4.47;2.28;;;10.90;99.90;;;;;;5113296;28;20077;-52
2022/10/26 05:22:01;;;;;;;4.38;2.45;;;10.90;99.90;;;;;;5087895;28;20552;-51
2022/10/26 05:24:28;;;;;;;3.97;1.75;;;10.80;99.90;;;;;;5095504;28;20035;-48
2022/10/26 05:26:55;;;;;;;8.00;2.75;;;10.80;99.90;;;;;;5096493;28;20066;-48
2022/10/26 05:29:21;;;;;;;4.40;1.85;;;10.90;99.90;;;;;;5098237;28;20119;-50
2022/10/26 05:31:48;;;;;;;7.18;1.60;;;10.90;99.90;;;;;;5099697;28;20135;-49
2022/10/26 05:34:15;;;;;;;2.80;1.70;;;10.90;99.90;;;;;;5096602;28;20124;-50
2022/10/26 05:36:42;;;;;;;5.07;2.40;;;11.00;99.90;;;;;;5068710;28;20036;-48
2022/10/26 05:39:08;;;;;;;5.93;2.50;;;10.90;99.90;;;;;;5089697;28;20040;-52
2022/10/26 05:41:35;;;;;;;5.65;2.70;;;10.90;99.90;;;;;;5092254;28;20076;-48
2022/10/26 05:44:02;;;;;;;4.30;2.47;;;10.90;99.90;;;;;;5101684;28;20067;-50
2022/10/26 05:46:29;;;;;;;4.85;2.42;;;10.90;99.90;;;;;;5092237;28;20531;-50
2022/10/26 05:48:55;;;;;;;7.55;2.17;;;10.90;99.90;;;;;;5077181;28;20036;-50
2022/10/26 05:51:22;;;;;;;4.38;2.13;;;10.90;99.90;;;;;;5083644;28;20064;-51
2022/10/26 05:53:53;;;;;;;4.22;1.92;;;10.90;99.90;;;;;;5078552;28;20066;-49
2022/10/26 05:56:37;;;;;;;2.88;1.88;;;10.80;99.90;;;;;;5097077;28;20070;-49
2022/10/26 05:59:10;;;;;;;7.10;2.08;;;10.90;99.90;;;;;;5094750;28;20064;-49
2022/10/26 06:02:16;;;;;;;3.45;1.90;;;10.90;99.90;;;;;;5079603;28;20061;-49
2022/10/26 06:04:48;;;;;;;5.40;1.92;;;11.00;99.90;;;;;;5077098;28;20039;-49
2022/10/26 06:07:18;;;;;;;5.13;2.30;;;10.90;99.90;;;;;;5084649;28;20044;-52
2022/10/26 06:09:46;;;;;;;5.65;2.30;;;11.00;99.90;;;;;;5086437;28;20042;-48
2022/10/26 06:12:13;;;;;;;7.63;2.40;;;11.00;99.90;;;;;;5073848;28;20071;-48
2022/10/26 06:14:45;;;;;;;7.05;2.40;;;11.10;99.90;;;;;;5075799;28;20123;-50
2022/10/26 06:17:15;;;;;;;5.40;2.20;;;11.10;99.90;;;;;;5081042;28;20707;-48
2022/10/26 06:20:01;;;;;;;4.85;2.30;;;11.20;99.90;;;;;;5096874;28;20042;-48
2022/10/26 06:22:36;;;;;;;4.43;2.88;;;11.20;99.90;;;;;;5105463;28;20043;-51
2022/10/26 06:25:25;;;;;;;3.97;2.40;;;11.30;99.90;;;;;;5094969;28;20072;-48
2022/10/26 06:28:11;;;;;;;3.72;2.67;;;11.30;99.90;;;;;;5091157;28;20075;-50
2022/10/26 06:30:39;;;;;;;3.72;2.30;;;11.40;99.90;;;;;;5087648;28;20032;-50
2022/10/26 06:33:10;;;;;;;6.38;2.30;;;11.40;99.90;;;;;;5090380;28;20070;-51
2022/10/26 06:36:12;;;;;;;3.47;2.40;;;11.50;99.90;;;;;;5091421;28;20048;-50
2022/10/26 06:38:43;;;;;;;10.23;2.30;;;11.40;99.90;;;;;;5093754;28;20077;-49
2022/10/26 06:41:14;;;;;;;3.58;2.08;;;11.50;99.90;;;;;;5104015;28;20044;-49
2022/10/26 06:43:41;;;;;;;3.95;2.00;;;11.50;99.90;;;;;;5073030;28;20560;-49
2022/10/26 06:46:26;;;;;;;5.57;2.10;;;11.50;99.90;;;;;;5069766;28;20052;-49
2022/10/26 06:49:33;;;;;;;3.25;1.92;;;11.50;99.90;;;;;;5081900;28;20101;-48
2022/10/26 06:52:12;;;;;;;3.38;2.03;;;11.50;99.90;;;;;;5105082;28;20036;-50
2022/10/26 06:54:53;;;;;;;3.28;2.08;;;11.50;99.90;;;;;;5100151;28;20039;-50
2022/10/26 06:57:32;;;;;;;5.53;2.00;;;11.50;99.90;;;;;;5110846;28;20092;-49
2022/10/26 07:00:01;;;;;;;4.80;2.42;;;11.60;99.90;;;;;;5070504;28;20072;-48
2022/10/26 07:02:28;;;;;;;4.63;1.50;;;11.60;99.90;;;;;;5081955;28;20040;-48
2022/10/26 07:04:55;;;;;;;4.30;2.03;;;11.50;99.90;;;;;;5090608;28;20067;-49
2022/10/26 07:07:27;;;;;;;5.75;2.38;;;11.50;99.90;;;;;;5105339;28;20126;-50
2022/10/26 07:09:54;;;;;;;4.80;2.20;;;11.50;99.90;;;;;;5070358;28;20119;-48
2022/10/26 07:12:21;;;;;;;6.07;2.40;;;11.50;99.90;;;;;;5076140;28;20064;-52
2022/10/26 07:14:47;;;;;;;6.90;2.40;;;11.60;99.90;;;;;;5080584;28;20407;-49
2022/10/26 07:17:15;;;;;;;3.08;2.13;;;11.70;99.90;;;;;;5101057;28;20036;-48
2022/10/26 07:19:43;;;;;;;6.53;2.38;;;11.70;99.90;;;;;;5111262;28;20122;-51
2022/10/26 07:22:10;;;;;;;5.03;2.70;;;11.70;99.90;;;;;;5083316;28;20044;-50
2022/10/26 07:24:38;;;;;;;4.50;2.20;;;11.70;99.90;;;;;;5110336;28;20047;-50
2022/10/26 07:27:05;;;;;;;4.15;2.20;;;11.70;99.90;;;;;;5095788;28;20501;-51
2022/10/26 07:29:34;;;;;;;4.13;2.50;;;11.70;99.90;;;;;;5074074;28;20464;-49
2022/10/26 07:32:00;;;;;;;7.85;2.45;;;11.70;99.90;;;;;;5073973;28;20090;-49
2022/10/26 07:34:27;;;;;;;3.80;2.35;;;11.80;99.90;;;;;;5113578;28;20782;-49
2022/10/26 07:36:54;;;;;;;4.68;2.70;;;11.80;99.90;;;;;;5081504;28;20041;-50
2022/10/26 07:39:21;;;;;;;6.45;3.28;;;11.90;99.90;;;;;;5113539;28;20564;-51
2022/10/26 07:41:47;;;;;;;4.70;2.75;;;11.80;99.90;;;;;;5096378;28;20116;-49
2022/10/26 07:44:14;;;;;;;3.50;2.20;;;11.70;99.90;;;;;;5074030;28;20049;-48
2022/10/26 07:46:41;;;;;;;7.90;2.45;;;11.80;99.90;;;;;;5094542;28;20036;-50
2022/10/26 07:49:08;;;;;;;2.88;2.38;;;11.80;99.90;;;;;;5114697;28;20119;-50
2022/10/26 07:51:35;;;;;;;12.18;2.70;;;11.90;99.90;;;;;;5093541;28;20154;-50
2022/10/26 07:54:02;;;;;;;5.68;2.58;;;12.10;99.90;;;;;;5093196;28;20127;-52
2022/10/26 07:56:29;;;;;;;7.55;2.35;;;12.20;99.90;;;;;;5091238;28;20040;-53
2022/10/26 07:58:56;;;;;;;7.35;2.53;;;12.30;99.90;;;;;;5093962;28;20466;-51
2022/10/26 08:01:23;;;;;;;3.65;2.42;;;12.40;99.90;;;;;;5100985;28;20076;-53
2022/10/26 08:03:53;;;;;;;;;;;12.40;99.90;;;;;;5093830;28;20050;-49
2022/10/26 08:06:21;;;;;;;4.35;2.63;;;12.60;99.90;;;;;;5064285;28;19956;-49
2022/10/26 08:08:48;;;;;;;5.47;2.45;;;12.70;99.90;;;;;;5083100;28;20433;-50
2022/10/26 08:11:16;;;;;;;6.35;2.72;;;12.80;99.90;;;;;;5087300;28;20053;-49
2022/10/26 08:13:43;;;;;;;4.72;1.90;;;12.90;99.90;;;;;;5084009;28;20032;-53
2022/10/26 08:16:10;;;;;;;3.47;2.33;;;13.10;99.90;;;;;;5085356;28;20063;-50
2022/10/26 08:18:36;;;;;;;4.88;1.88;;;13.20;99.90;;;;;;5082746;28;20064;-50
2022/10/26 08:21:06;;;;;;;10.93;2.55;;;13.30;99.90;;;;;;5088750;28;20130;-51
2022/10/26 08:23:37;;;;;;;3.92;1.67;;;13.40;99.90;;;;;;5101918;28;20458;-51
2022/10/26 08:26:04;;;;;;;;;;;13.50;99.90;;;;;;5078296;28;20045;-49
2022/10/26 08:28:31;;;;;;;4.90;1.77;;;13.60;99.90;;;;;;5082862;28;19920;-51
2022/10/26 08:30:58;;;;;;;6.57;2.10;;;13.70;99.90;;;;;;5084928;28;20071;-51
2022/10/26 08:33:25;;;;;;;6.90;2.25;;;13.80;99.90;;;;;;5093428;28;20110;-51
2022/10/26 08:35:56;;;;;;;3.83;2.30;;;13.70;99.90;;;;;;5091260;28;20040;-51
2022/10/26 08:38:23;;;;;;;9.82;2.70;;;13.80;99.90;;;;;;5095457;28;20044;-49
2022/10/26 08:40:51;;;;;;;5.22;2.40;;;13.70;99.90;;;;;;5071862;28;20662;-49
2022/10/26 08:43:38;;;;;;;3.47;1.92;;;13.70;99.90;;;;;;5071389;28;20041;-48
2022/10/26 08:46:19;;;;;;;12.13;4.43;;;13.70;99.90;;;;;;5089010;28;20040;-51
2022/10/26 08:49:06;;;;;;;3.47;1.98;;;13.60;99.90;;;;;;5081600;28;20064;-51
2022/10/26 08:51:40;;;;;;;3.13;2.00;;;13.60;99.90;;;;;;5073755;28;20032;-51
2022/10/26 08:54:18;;;;;;;5.40;1.70;;;13.50;99.90;;;;;;5081625;28;20040;-50
2022/10/26 08:56:58;;;;;;;2.60;1.58;;;13.50;99.90;;;;;;5096513;28;20481;-49
2022/10/26 08:59:34;;;;;;;2.97;1.70;;;13.50;99.90;;;;;;5082857;28;20036;-50
2022/10/26 09:02:01;;;;;;;2.78;1.70;;;13.50;99.90;;;;;;5082746;28;20161;-49
2022/10/26 09:04:30;;;;;;;2.55;1.80;;;13.60;99.90;;;;;;5095833;28;20164;-53
2022/10/26 09:07:27;;;;;;;3.90;2.08;;;13.60;99.90;;;;;;5083047;28;20036;-50
2022/10/26 09:10:03;;;;;;;4.38;1.73;;;13.80;99.90;;;;;;5088065;28;20381;-52
2022/10/26 09:13:00;;;;;;;7.00;2.38;;;13.80;99.90;;;;;;5092892;28;20455;-49
2022/10/26 09:15:36;;;;;;;6.22;2.05;;;13.90;99.90;;;;;;5083012;28;20477;-49
2022/10/26 09:18:46;;;;;;;8.13;2.78;;;14.00;99.90;;;;;;5082729;28;20044;-51
2022/10/26 09:21:44;;;;;;;4.60;2.08;;;14.20;99.90;;;;;;5096136;28;20051;-49
2022/10/26 09:24:31;;;;;;;3.22;2.00;;;14.20;99.90;;;;;;5071897;28;20401;-51
2022/10/26 09:27:14;;;;;;;2.95;1.98;;;14.30;99.90;;;;;;5079830;28;20092;-49
2022/10/26 09:29:42;;;;;;;4.38;2.10;;;14.40;99.90;;;;;;5100779;28;20043;-50
2022/10/26 09:32:25;;;;;;;2.97;1.77;;;14.50;99.90;;;;;;5084384;28;20125;-49
2022/10/26 09:34:56;;;;;;;6.20;1.73;;;14.40;99.90;;;;;;5082584;28;20085;-53
2022/10/26 09:37:36;;;;;;;2.92;1.90;;;14.40;99.90;;;;;;5084771;28;20173;-49
2022/10/26 09:40:16;;;;;;;4.70;1.90;;;14.50;99.90;;;;;;5086263;28;20062;-49
2022/10/26 09:43:18;;;;;;;5.53;1.92;;;14.60;99.90;;;;;;5083398;28;20041;-49
2022/10/26 09:45:49;;;;;;;5.28;1.67;;;14.70;99.90;;;;;;5037751;28;20053;-48
2022/10/26 09:48:43;;;;;;;4.45;2.00;;;14.70;99.90;;;;;;5083976;28;20516;-50
2022/10/26 09:51:10;;;;;;;3.80;1.90;;;14.80;99.90;;;;;;5076887;28;20040;-50
2022/10/26 09:53:36;;;;;;;6.60;1.83;;;14.80;99.90;;;;;;5088545;28;20964;-50
2022/10/26 09:56:06;;;;;;;3.22;1.88;;;14.70;99.90;;;;;;5091257;28;20492;-49
2022/10/26 09:58:40;;;;;;;3.85;1.67;;;14.90;99.90;;;;;;5090604;28;20089;-48
2022/10/26 10:01:31;;;;;;;2.90;1.70;;;15.00;99.90;;;;;;5087026;28;20058;-49
2022/10/26 10:04:13;;;;;;;7.78;2.65;;;15.10;99.90;;;;;;5090164;28;20036;-49
2022/10/26 10:06:40;;;;;;;3.80;1.98;;;15.30;99.90;;;;;;5080818;28;20093;-49
2022/10/26 10:09:19;;;;;;;4.35;2.10;;;15.30;99.90;;;;;;5087919;28;20432;-49
2022/10/26 10:11:54;;;;;;;3.33;1.67;;;15.40;99.90;;;;;;5076918;28;20036;-54
2022/10/26 10:14:32;;;;;;;4.13;1.77;;;15.40;99.90;;;;;;5094175;28;20036;-49
2022/10/26 10:17:21;;;;;;;3.35;1.60;;;15.50;99.90;;;;;;5081459;28;20040;-51
2022/10/26 10:19:48;;;;;;;5.40;1.63;;;15.40;99.90;;;;;;5082337;28;20558;-50
2022/10/26 10:22:15;;;;;;;;;;;15.30;99.90;;;;;;5079961;28;20072;-49
2022/10/26 10:24:53;;;;;;;5.70;2.53;;;15.20;99.90;;;;;;5079921;28;19920;-49
2022/10/26 10:27:20;;;;;;;2.60;1.88;;;15.10;99.90;;;;;;5083885;28;20067;-50
2022/10/26 10:29:49;;;;;;;4.25;1.70;;;15.30;99.90;;;;;;5077079;28;20070;-50
2022/10/26 10:32:20;;;;;;;3.78;1.30;;;15.10;99.90;;;;;;5095288;28;20132;-48
2022/10/26 10:34:50;;;;;;;3.45;1.50;;;15.20;99.90;;;;;;5079919;28;20064;-50
2022/10/26 10:37:30;;;;;;;3.13;1.83;;;15.20;99.90;;;;;;5091548;28;20075;-50
2022/10/26 10:40:18;;;;;;;4.90;1.75;;;15.20;99.90;;;;;;5087179;28;20040;-52
2022/10/26 10:42:46;;;;;;;3.40;1.93;;;15.20;99.90;;;;;;5076912;28;20493;-52
2022/10/26 10:45:23;;;;;;;9.02;1.98;;;15.20;99.90;;;;;;5083858;28;20036;-50
2022/10/26 10:48:12;;;;;;;3.30;1.70;;;15.00;99.90;;;;;;5087197;28;20512;-50
2022/10/26 10:50:52;;;;;;;5.38;1.60;;;15.00;99.90;;;;;;5086004;28;20051;-49
2022/10/26 10:53:43;;;;;;;3.25;1.60;;;15.10;99.90;;;;;;5084831;28;20044;-50
2022/10/26 10:56:46;;;;;;;3.90;1.80;;;15.00;99.90;;;;;;5092095;28;20068;-54
2022/10/26 10:59:31;;;;;;;4.63;1.75;;;15.10;99.90;;;;;;5080114;28;20043;-49
2022/10/26 11:02:04;;;;;;;4.05;1.50;;;15.10;99.90;;;;;;5091067;28;20080;-51
2022/10/26 11:04:49;;;;;;;2.70;1.63;;;15.10;99.90;;;;;;5087346;28;20124;-50
2022/10/26 11:07:18;;;;;;;3.80;1.90;;;15.20;99.90;;;;;;5070060;28;20060;-49
2022/10/26 11:09:48;;;;;;;5.80;1.90;;;15.20;99.90;;;;;;5082481;28;20040;-50
2022/10/26 11:12:23;;;;;;;5.00;2.20;;;15.20;99.90;;;;;;5082291;28;20131;-49
2022/10/26 11:15:05;;;;;;;2.53;1.42;;;15.20;99.90;;;;;;5090790;28;20048;-49
2022/10/26 11:17:49;;;;;;;2.95;2.08;;;15.20;99.90;;;;;;5082181;28;20142;-50
2022/10/26 11:20:21;;;;;;;3.65;1.60;;;15.20;99.90;;;;;;5086123;28;20040;-50
2022/10/26 11:23:08;;;;;;;4.07;2.15;;;15.40;99.90;;;;;;5084101;28;20070;-49
2022/10/26 11:25:48;;;;;;;6.68;2.05;;;15.50;99.90;;;;;;5082068;28;20065;-51
2022/10/26 11:28:44;;;;;;;2.88;1.40;;;15.60;99.90;;;;;;5081752;28;20079;-52
2022/10/26 11:31:17;;;;;;;2.95;1.38;;;15.60;99.90;;;;;;5085083;28;20049;-48
2022/10/26 11:33:56;;;;;;;3.42;1.73;;;15.70;99.90;;;;;;5078163;28;20071;-51
2022/10/26 11:36:32;;;;;;;3.00;1.60;;;15.80;99.90;;;;;;5078764;28;20071;-51
2022/10/26 11:39:14;;;;;;;3.45;1.73;;;15.80;99.90;;;;;;5085693;28;20063;-50
2022/10/26 11:41:49;;;;;;;2.70;1.63;;;15.90;99.90;;;;;;5078090;28;20123;-50
2022/10/26 11:44:42;;;;;;;7.28;3.10;;;15.90;99.90;;;;;;5076593;28;20056;-53
2022/10/26 11:47:15;;;;;;;6.22;2.05;;;15.80;99.90;;;;;;5080437;28;20120;-52
2022/10/26 11:49:44;;;;;;;4.20;1.77;;;15.80;99.90;;;;;;5079511;28;20051;-49
2022/10/26 11:52:21;;;;;;;5.93;2.45;;;15.80;99.90;;;;;;5080098;28;20076;-50
2022/10/26 11:54:59;;;;;;;4.10;1.90;;;15.80;99.90;;;;;;5084901;28;20066;-52
2022/10/26 11:57:27;;;;;;;;;;;16.10;99.90;;;;;;5080079;28;20056;-52
2022/10/26 12:00:04;;;;;;;3.17;2.00;;;16.20;99.90;;;;;;5076424;28;19919;-49
2022/10/26 12:02:45;;;;;;;3.67;1.60;;;16.30;99.90;;;;;;5082288;28;20547;-50
2022/10/26 12:05:15;;;;;;;2.70;1.50;;;16.50;99.90;;;;;;5084570;28;20040;-52
2022/10/26 12:08:01;;;;;;;3.47;1.40;;;16.80;99.90;;;;;;5081317;28;20085;-50
2022/10/26 12:10:32;;;;;;;3.95;1.50;;;17.10;99.90;;;;;;5083063;28;20075;-53
2022/10/26 12:13:26;;;;;;;2.38;1.42;;;17.20;99.90;;;;;;5091117;28;20036;-52
2022/10/26 12:16:00;;;;;;;3.22;1.50;;;17.20;99.90;;;;;;5084805;28;20040;-51
2022/10/26 12:18:49;;;;;;;5.07;1.92;;;17.40;99.90;;;;;;5086753;28;20043;-49
2022/10/26 12:21:28;;;;;;;4.38;1.48;;;17.60;99.90;;;;;;5088003;28;20489;-49
2022/10/26 12:24:18;;;;;;;6.10;1.60;;;17.90;99.90;;;;;;5101138;22;20508;-49
2022/10/26 12:30:10;;;;;;;2.65;1.52;;;17.70;99.90;;;;;;5087544;28;20044;-46
2022/10/26 12:32:37;;;;;;;3.30;1.58;;;17.30;99.90;;;;;;5087071;28;20331;-47
2022/10/26 12:35:33;;;;;;;3.05;1.67;;;17.30;99.90;;;;;;5075211;28;20048;-47
2022/10/26 12:38:25;;;;;;;2.47;1.40;;;17.20;99.90;;;;;;5082251;28;20052;-46
2022/10/26 12:41:09;;;;;;;4.63;1.45;;;17.20;99.90;;;;;;5084608;28;20136;-47
2022/10/26 12:43:38;;;;;;;4.53;1.60;;;17.10;99.90;;;;;;5072533;28;20041;-47
2022/10/26 12:46:11;;;;;;;2.15;1.40;;;17.10;99.90;;;;;;5089755;28;20047;-46
2022/10/26 12:48:47;;;;;;;3.28;1.65;;;17.00;99.90;;;;;;5084903;28;20044;-48
2022/10/26 12:51:25;;;;;;;3.55;1.80;;;17.00;99.90;;;;;;5082571;28;20077;-47
2022/10/26 12:54:19;;;;;;;4.25;1.70;;;17.00;99.90;;;;;;5084718;28;20474;-46
2022/10/26 12:56:54;;;;;;;3.00;1.73;;;17.00;99.90;;;;;;5087094;28;20063;-46
2022/10/26 12:59:47;;;;;;;2.38;1.50;;;16.80;99.90;;;;;;5087152;28;20123;-46
2022/10/26 13:02:58;;;;;;;3.00;1.50;;;16.70;99.90;;;;;;5074473;28;20086;-48
2022/10/26 13:06:08;;;;;;;3.35;1.63;;;16.60;99.90;;;;;;5067080;28;20056;-51
2022/10/26 13:08:43;;;;;;;;;;;16.50;99.90;;;;;;5076703;28;20079;-48
2022/10/26 13:11:30;;;;;;;2.75;1.83;;;16.60;99.90;;;;;;5087901;28;19985;-48
2022/10/26 13:14:00;;;;;;;4.30;2.38;;;16.60;99.90;;;;;;5086477;28;20035;-52
2022/10/26 13:16:28;;;;;;;4.15;1.92;;;16.50;99.90;;;;;;5088952;28;20119;-48
2022/10/26 13:18:56;;;;;;;6.72;2.13;;;16.50;99.90;;;;;;5073883;28;20036;-48
2022/10/26 13:21:25;;;;;;;3.40;1.85;;;16.40;99.90;;;;;;5086700;28;20481;-47
2022/10/26 13:24:00;;;;;;;5.35;1.90;;;16.40;99.90;;;;;;5091065;28;20063;-50
2022/10/26 13:26:29;;;;;;;4.97;2.03;;;16.40;99.90;;;;;;5083906;28;20070;-48
2022/10/26 13:29:01;;;;;;;3.13;2.03;;;16.30;99.90;;;;;;5075526;28;20546;-46